CheckWX is a tool to help pilots better visualize weather data.  It is not intended as a substitute for an official pre-flight weather briefing.

13:47:25 UTC

SLVR TAF
Viru Viru International Airport
Santa Cruz, Bolivia
TAF SLVR 181000Z 1812/1912 34010KT 6000 FU NSC TX34/1820Z TN20/1911Z TEMPO 1814/1818 33012G24KT TEMPO 1822/1901 VRB02KT 8000 BECMG 1902/ 1904 18016KT 6000 SCT070

Aug-18@
12:00 UTC

Aug-18 @ 12:00 UTC

Aug-19@
12:00 UTC

Aug-19 @ 12:00 UTC

TAF SLVR 181000Z 1812/1912 34010KT 6000 FU NSC TX34/1820Z TN20/1911Z
Wind
  • 340° at 10 KTS
Conditions
Smoke
Cloud Levels
  • No significant clouds

Aug-18@
14:00 UTC

Aug-18 @ 14:00 UTC

Aug-18@
18:00 UTC

Aug-18 @ 18:00 UTC

TEMPO 1814/1818 33012G24KT

Temporary

Temporary Changes expected for less than half the time period

Wind
  • 330° at 12 KTS
  • {Gusting to 24 KTS

Aug-18@
22:00 UTC

Aug-18 @ 22:00 UTC

Aug-19@
01:00 UTC

Aug-19 @ 01:00 UTC

TEMPO 1822/1901 VRB02KT 8000

Temporary

Temporary Changes expected for less than half the time period

Wind
  • Variable at 2 KTS